Harvey, ND

6:58 PM CDT on August 27, 2016 (GMT -0500)
Harvey | | Change Station

Elev 1608 ft 47.79 °N, 99.93 °W | Updated 23 minutes ago

Clear
Clear
77 °F
Feels Like 77 °F
N
6
Wind Variable Wind from SW

Today
High -- | Low -- °F
--% Chance of Precip.
Yesterday
High -- | Low -- °F
Precip. -- in
Pressure 29.90 in
Visibility 10.0 miles
Clouds Clear
Dew Point 45 °F
Humidity 32%
Rainfall 18.48 in
Snow Depth Not available.
6:52 AM 8:29 PM
Waning Crescent, 20% visible
METAR K5H4 272335Z AUTO 22005KT 10SM CLR 25/07 A2990 RMK AO2 P0033 PWINO PNO
Pressure 29.90 in
Visibility 10.0 miles
Clouds Clear
Dew Point 45 °F
Humidity 32%
Rainfall 18.48 in
Snow Depth Not available.
6:52 AM 8:29 PM
Waning Crescent, 20% visible
METAR K5H4 272335Z AUTO 22005KT 10SM CLR 25/07 A2990 RMK AO2 P0033 PWINO PNO

10-Day Weather Forecast

Almanac

Astronomy

Aug. 27, 2016 Rise Set
Actual Time
Civil Twilight
Nautical Twilight
Astronomical Twilight
Moon
Length of Visible Light
Length of Day
Tomorrow will be .
, % of the Moon is Illuminated

Today's Extremes

State Highs State Lows

Community

WunderPhotos

Upload Photos

1,935,469 photos uploaded!

WunderBlog® & News

Nearby

Air Quality

  Air Quality AQ Index Pollutant
Not available.

Snow Depth

Station Depth Elevation

Earthquake Activity

City Distance Mag. Time & Date
Minimum magnitude displayed is 2.5.

Coastal Water Temperatures

Place Temperature

Stations

Nearby Weather Stations

Station Location Temp. Windchill Dew Point Humidity Wind Precip. Elev Updated Type
                   

Watches & Warnings

There are currently no watches in effect.